Decoded Metar for SARI (IGUAZU FALLS in ARGENTINA) (IATA:IGR) | Meteo·Mobile Aviation Weather
aviador You're here:

SARI Decoded Metar

IGUAZU FALLS in ARGENTINA
Report Time2019-01-21 15:00:00
UTC Time2019-01-21 15:30:00
Flight Rules vfr VFR
Wind320° at 06 kt
W.Decomp.*RWY 31: 5.4 kt HW 2.5 kt RCW
W.Rank320° ranks 12
Current wind is above 320° avg. (5.4)
Visibility9999 m
Phenomena:N/A
Clouds:Scattered 030 Hf
Expected CloudBase > 3,200 ft AGL from Temp-Dew spread
CeilingNone
Temp30°C (ISA +17)
Dew Point22°C (62% RH)
Heat Index33.2°C
QNH1016 hPa
Density Alt3,054 ft
Elevation886 ft
Report Wrong Elevation
Raw Report
SARI 211500Z 32006KT 9999 SCT030 30/22 Q1016=

Extra information for SARI:More info

Metar Taf Metar & Taf Last 4 Metars F.Rules Stats Wind Profile Meteogram Temp Stats Airport Information Weather charts Add Link Nearby VenuesMetar ALERT Operation Metar Decoded Social comments